Arlington, TX

8:53 PM CDT on September 23, 2014 (GMT -0500)
Arlington Municipal | Change Station
CLOSE
Current Station
Airport
Location: Arlington,
Elevation: 630 ft
Nearby Weather Stations

Elev 630 ft 32.66 °N, 97.10 °W | Updated 1 hour ago

Clear
Clear
75 °F
Feels Like 75 °F
N
4
Wind Variable Wind from ESE

Today
High -- | Low -- °F
--% Chance of Precip.
Yesterday
High -- | Low -- °F
Precip. -- in
7:17 AM 7:23 PM
Waning Crescent, 0% visible
Pressure 30.05 in
Visibility 10.0 miles
Clouds Clear
Dew Point 47 °F
Humidity 37%
Rainfall 0.00 in
Snow Depth Not available.
UV 0 out of 12
Pollen 10.50 out of 12
Ozone Moderate
PM2.5 Good
Flu Activity Not available.
METAR KGKY 240053Z 12003KT 10SM CLR 24/08 A3007 RMK AO2 SLP176 T02390083

More Conditions Fewer Conditions

Pressure 30.05 in
Visibility 10.0 miles
Clouds Clear
Dew Point 47 °F
Humidity 37%
Rainfall 0.00 in
Snow Depth Not available.
UV 0 out of 12
Pollen 10.50 out of 12
Ozone Moderate
PM2.5 Good
Flu Activity Not available.
METAR KGKY 240053Z 12003KT 10SM CLR 24/08 A3007 RMK AO2 SLP176 T02390083

More Conditions Fewer Conditions

10-Day Weather Forecast

Almanac

Astronomy

Sep. 23, 2014 Rise Set
Actual Time 7:17 AM CDT 7:23 PM CDT
Civil Twilight 6:52 AM CDT 7:48 PM CDT
Nautical Twilight 6:24 AM CDT 8:17 PM CDT
Astronomical Twilight 5:55 AM CDT 8:45 PM CDT
Moon 6:43 AM CDT (9/23) 7:04 PM CDT (9/23)
Length of Visible Light 12h 55m
Length of Day
12h 06m
Tomorrow will be 1m 59s shorter.
Waning Crescent, 0% of the Moon is Illuminated
Today
Waning Crescent
Sep 24
New
Oct 1
First Quarter
Oct 8
Full
Oct 15
Last Quarter

Today's Extremes

State Highs State Lows

Community

WunderPhotos

Upload Photos

1,755,844 photos uploaded!

Nearby

Air Quality

  Air Quality AQ Index Pollutant
Yesterday Moderate
OZONE
Yesterday Good
PM2.5
Current Moderate
OZONE
Current Good
PM2.5
Tuesday Moderate
OZONE
Tuesday Good
PM10
Wednesday Moderate
OZONE
Wednesday Good
PM10
Thursday Moderate
OZONE
Thursday Good
PM10
Friday Moderate
OZONE
Friday Good
PM10

Snow Depth

Station Depth Elevation
No new snow has been reported.

Earthquake Activity

City Distance Mag. Time & Date
Bray, Oklahoma 137 miles 3.6 2:28 PM CDT
2014-09-22
Minimum magnitude displayed is 2.5.

Coastal Water Temperatures

Place Temperature
No Stations Reporting

Nearby Weather Stations